createdAt,value
2023-03-30T00:05:04.582Z,46.75
2023-03-30T00:10:09.062Z,48.00
2023-03-30T00:15:14.098Z,51.75
2023-03-30T00:20:18.889Z,80.00
2023-03-30T00:25:24.617Z,59.00
2023-03-30T00:30:29.093Z,54.75
2023-03-30T00:35:33.500Z,55.75
2023-03-30T00:40:38.042Z,53.50
2023-03-30T00:45:42.670Z,50.75
2023-03-30T00:50:48.486Z,43.00
2023-03-30T00:55:54.341Z,53.75
2023-03-30T01:01:00.145Z,51.50
2023-03-30T01:06:06.627Z,58.50
2023-03-30T01:11:11.663Z,47.50
2023-03-30T01:16:36.338Z,43.50
2023-03-30T01:22:02.606Z,51.75
2023-03-30T01:27:32.253Z,57.00
2023-03-30T01:32:37.364Z,58.25
2023-03-30T01:37:44.984Z,67.25
2023-03-30T01:42:57.898Z,49.00
2023-03-30T01:48:22.713Z,49.50
2023-03-30T01:53:45.805Z,52.75
2023-03-30T01:58:52.673Z,65.50
2023-03-30T02:03:59.372Z,70.25
2023-03-30T02:09:04.797Z,71.50
2023-03-30T02:14:11.717Z,62.50
2023-03-30T02:19:17.057Z,63.00
2023-03-30T02:24:25.126Z,60.50
2023-03-30T02:29:29.818Z,76.75
2023-03-30T02:34:49.910Z,64.25
2023-03-30T02:40:22.481Z,65.00
2023-03-30T02:45:36.043Z,65.75
2023-03-30T02:50:47.006Z,59.50
2023-03-30T02:56:14.382Z,53.25
2023-03-30T03:01:37.743Z,55.50
2023-03-30T03:06:47.971Z,47.00
2023-03-30T03:11:53.657Z,49.50
2023-03-30T03:17:00.026Z,48.50
2023-03-30T03:22:10.582Z,49.00
2023-03-30T03:27:17.658Z,47.75
2023-03-30T03:33:00.978Z,48.75
2023-03-30T03:38:09.206Z,41.50
2023-03-30T03:43:14.564Z,41.25
2023-03-30T03:48:21.087Z,44.50
2023-03-30T03:53:29.014Z,35.25
2023-03-30T03:58:40.333Z,35.75
2023-03-30T04:03:45.262Z,47.50
2023-03-30T04:08:49.977Z,41.75
2023-03-30T04:14:00.669Z,35.75
2023-03-30T04:19:34.721Z,42.25
2023-03-30T04:24:51.786Z,37.00
2023-03-30T04:30:23.802Z,45.25
2023-03-30T04:35:46.018Z,34.50
2023-03-30T04:41:28.072Z,37.50
2023-03-30T04:46:52.175Z,41.25
2023-03-30T04:52:14.572Z,37.00
2023-03-30T04:57:48.918Z,35.75
2023-03-30T05:03:13.490Z,33.75
2023-03-30T05:08:34.985Z,35.50
2023-03-30T05:14:02.078Z,35.50
2023-03-30T05:19:23.086Z,36.25
2023-03-30T05:24:43.451Z,30.50
2023-03-30T05:30:10.778Z,31.00
2023-03-30T05:35:34.084Z,32.25
2023-03-30T05:40:56.272Z,52.25
2023-03-30T05:46:09.083Z,49.25
2023-03-30T05:51:33.550Z,45.00
2023-03-30T05:57:00.145Z,46.00
2023-03-30T06:02:21.205Z,46.75
2023-03-30T06:07:26.504Z,43.00
2023-03-30T06:12:32.378Z,42.00
2023-03-30T06:17:37.945Z,74.75
2023-03-30T06:22:46.007Z,110.75
2023-03-30T06:27:54.922Z,97.75
2023-03-30T06:32:59.613Z,80.00
2023-03-30T06:38:25.166Z,86.25
2023-03-30T06:43:32.123Z,91.25
2023-03-30T06:48:43.817Z,98.50
2023-03-30T06:54:26.105Z,85.50
2023-03-30T06:59:36.655Z,81.50
2023-03-30T07:04:59.159Z,76.25
2023-03-30T07:10:13.413Z,73.50
2023-03-30T07:15:18.281Z,69.50
2023-03-30T07:20:22.911Z,73.25
2023-03-30T07:25:50.140Z,68.00
2023-03-30T07:31:09.207Z,69.00
2023-03-30T07:36:17.573Z,69.25
2023-03-30T07:41:23.680Z,66.75
2023-03-30T07:46:32.886Z,71.00
2023-03-30T07:51:38.252Z,68.25
2023-03-30T07:56:56.802Z,64.75
2023-03-30T08:02:01.841Z,62.25
2023-03-30T08:07:22.098Z,60.00
2023-03-30T08:12:32.093Z,60.00
2023-03-30T08:17:37.393Z,58.75
2023-03-30T08:22:41.988Z,60.00
2023-03-30T08:27:46.279Z,54.75
2023-03-30T08:32:50.592Z,54.25
2023-03-30T08:37:55.296Z,55.50
2023-03-30T08:43:13.734Z,48.75
2023-03-30T08:48:23.621Z,48.50
2023-03-30T08:53:30.268Z,50.25
2023-03-30T08:58:46.508Z,47.00
2023-03-30T09:04:08.804Z,48.50
2023-03-30T09:09:14.582Z,47.75
2023-03-30T09:14:29.556Z,45.00
2023-03-30T09:19:37.375Z,50.50
2023-03-30T09:24:42.488Z,44.75
2023-03-30T09:29:52.392Z,45.00
2023-03-30T09:34:59.462Z,49.00
